sensor_id;sensor_type;location;lat;lon;timestamp;P1;durP1;ratioP1;P2;durP2;ratioP2
57113;SDS011;42994;51.606;9.988;2022-09-09T00:02:02;3.50;;;1.33;;
57113;SDS011;42994;51.606;9.988;2022-09-09T00:04:40;4.78;;;0.93;;
57113;SDS011;42994;51.606;9.988;2022-09-09T00:07:10;4.55;;;1.00;;
57113;SDS011;42994;51.606;9.988;2022-09-09T00:09:44;5.13;;;1.10;;
57113;SDS011;42994;51.606;9.988;2022-09-09T00:12:16;3.30;;;1.05;;
57113;SDS011;42994;51.606;9.988;2022-09-09T00:14:51;2.47;;;1.30;;
57113;SDS011;42994;51.606;9.988;2022-09-09T00:17:30;1.98;;;1.08;;
57113;SDS011;42994;51.606;9.988;2022-09-09T00:20:02;3.60;;;1.50;;
57113;SDS011;42994;51.606;9.988;2022-09-09T00:22:38;6.25;;;1.23;;
57113;SDS011;42994;51.606;9.988;2022-09-09T00:25:12;3.05;;;1.30;;
57113;SDS011;42994;51.606;9.988;2022-09-09T00:27:48;4.28;;;1.20;;
57113;SDS011;42994;51.606;9.988;2022-09-09T00:30:17;6.68;;;1.77;;
57113;SDS011;42994;51.606;9.988;2022-09-09T00:32:48;3.85;;;1.20;;
57113;SDS011;42994;51.606;9.988;2022-09-09T00:35:17;6.78;;;1.15;;
57113;SDS011;42994;51.606;9.988;2022-09-09T00:37:48;4.10;;;1.13;;
57113;SDS011;42994;51.606;9.988;2022-09-09T00:40:22;7.50;;;2.22;;
57113;SDS011;42994;51.606;9.988;2022-09-09T00:42:58;4.15;;;1.25;;
57113;SDS011;42994;51.606;9.988;2022-09-09T00:45:43;3.72;;;1.27;;
57113;SDS011;42994;51.606;9.988;2022-09-09T00:48:26;5.05;;;1.60;;
57113;SDS011;42994;51.606;9.988;2022-09-09T00:51:02;3.83;;;1.48;;
57113;SDS011;42994;51.606;9.988;2022-09-09T00:53:51;2.53;;;1.13;;
57113;SDS011;42994;51.606;9.988;2022-09-09T00:56:29;7.32;;;1.45;;
57113;SDS011;42994;51.606;9.988;2022-09-09T00:59:12;4.32;;;1.35;;
57113;SDS011;42994;51.606;9.988;2022-09-09T01:01:45;3.67;;;1.50;;
57113;SDS011;42994;51.606;9.988;2022-09-09T01:04:13;5.85;;;1.25;;
57113;SDS011;42994;51.606;9.988;2022-09-09T01:06:49;6.68;;;2.03;;
57113;SDS011;42994;51.606;9.988;2022-09-09T01:09:22;3.15;;;1.17;;
57113;SDS011;42994;51.606;9.988;2022-09-09T01:11:55;4.13;;;1.67;;
57113;SDS011;42994;51.606;9.988;2022-09-09T01:14:35;11.57;;;2.47;;
57113;SDS011;42994;51.606;9.988;2022-09-09T01:17:08;4.65;;;1.30;;
57113;SDS011;42994;51.606;9.988;2022-09-09T01:19:45;3.13;;;1.48;;
57113;SDS011;42994;51.606;9.988;2022-09-09T01:22:22;3.33;;;1.65;;
57113;SDS011;42994;51.606;9.988;2022-09-09T01:28:07;4.75;;;1.65;;
57113;SDS011;42994;51.606;9.988;2022-09-09T01:30:38;5.95;;;1.30;;
57113;SDS011;42994;51.606;9.988;2022-09-09T01:33:10;14.32;;;1.90;;
57113;SDS011;42994;51.606;9.988;2022-09-09T01:35:43;3.88;;;1.42;;
57113;SDS011;42994;51.606;9.988;2022-09-09T01:38:16;4.32;;;1.60;;
57113;SDS011;42994;51.606;9.988;2022-09-09T01:40:46;3.72;;;1.55;;
57113;SDS011;42994;51.606;9.988;2022-09-09T01:43:15;5.28;;;1.65;;
57113;SDS011;42994;51.606;9.988;2022-09-09T01:45:41;9.80;;;2.25;;
57113;SDS011;42994;51.606;9.988;2022-09-09T01:48:09;8.00;;;2.50;;
57113;SDS011;42994;51.606;9.988;2022-09-09T01:50:45;6.43;;;2.50;;
57113;SDS011;42994;51.606;9.988;2022-09-09T01:53:12;5.03;;;2.15;;
57113;SDS011;42994;51.606;9.988;2022-09-09T01:55:42;3.03;;;1.83;;
57113;SDS011;42994;51.606;9.988;2022-09-09T01:58:22;2.78;;;2.20;;
57113;SDS011;42994;51.606;9.988;2022-09-09T02:01:00;7.05;;;2.83;;
57113;SDS011;42994;51.606;9.988;2022-09-09T02:03:33;5.53;;;2.40;;
57113;SDS011;42994;51.606;9.988;2022-09-09T02:06:18;5.53;;;1.92;;
57113;SDS011;42994;51.606;9.988;2022-09-09T02:08:57;3.60;;;1.83;;
57113;SDS011;42994;51.606;9.988;2022-09-09T02:11:27;5.60;;;2.10;;
57113;SDS011;42994;51.606;9.988;2022-09-09T02:14:10;4.90;;;1.90;;
57113;SDS011;42994;51.606;9.988;2022-09-09T02:16:44;4.43;;;1.80;;
57113;SDS011;42994;51.606;9.988;2022-09-09T02:19:18;3.90;;;1.77;;
57113;SDS011;42994;51.606;9.988;2022-09-09T02:22:09;6.05;;;1.83;;
57113;SDS011;42994;51.606;9.988;2022-09-09T02:24:37;5.63;;;2.13;;
57113;SDS011;42994;51.606;9.988;2022-09-09T02:27:14;5.32;;;1.95;;
57113;SDS011;42994;51.606;9.988;2022-09-09T02:29:45;5.25;;;2.00;;
57113;SDS011;42994;51.606;9.988;2022-09-09T02:32:14;8.80;;;2.70;;
57113;SDS011;42994;51.606;9.988;2022-09-09T02:34:44;3.00;;;1.25;;
57113;SDS011;42994;51.606;9.988;2022-09-09T02:37:14;4.57;;;1.95;;
57113;SDS011;42994;51.606;9.988;2022-09-09T02:39:48;3.80;;;1.73;;
57113;SDS011;42994;51.606;9.988;2022-09-09T02:42:18;7.20;;;1.80;;
57113;SDS011;42994;51.606;9.988;2022-09-09T02:44:46;4.95;;;1.45;;
57113;SDS011;42994;51.606;9.988;2022-09-09T02:47:16;8.10;;;1.80;;
57113;SDS011;42994;51.606;9.988;2022-09-09T02:49:56;9.38;;;1.92;;
57113;SDS011;42994;51.606;9.988;2022-09-09T02:52:33;3.83;;;1.50;;
57113;SDS011;42994;51.606;9.988;2022-09-09T02:55:10;2.88;;;1.42;;
57113;SDS011;42994;51.606;9.988;2022-09-09T02:57:45;8.15;;;2.13;;
57113;SDS011;42994;51.606;9.988;2022-09-09T03:00:17;3.53;;;1.42;;
57113;SDS011;42994;51.606;9.988;2022-09-09T03:02:50;4.45;;;1.70;;
57113;SDS011;42994;51.606;9.988;2022-09-09T03:05:17;12.85;;;2.00;;
57113;SDS011;42994;51.606;9.988;2022-09-09T03:07:44;6.45;;;2.10;;
57113;SDS011;42994;51.606;9.988;2022-09-09T03:10:10;5.82;;;2.88;;
57113;SDS011;42994;51.606;9.988;2022-09-09T03:12:37;4.63;;;2.72;;
57113;SDS011;42994;51.606;9.988;2022-09-09T03:15:04;12.50;;;4.05;;
57113;SDS011;42994;51.606;9.988;2022-09-09T03:17:33;6.07;;;3.45;;
57113;SDS011;42994;51.606;9.988;2022-09-09T03:20:00;6.47;;;2.90;;
57113;SDS011;42994;51.606;9.988;2022-09-09T03:22:28;9.38;;;2.70;;
57113;SDS011;42994;51.606;9.988;2022-09-09T03:24:57;7.32;;;2.80;;
57113;SDS011;42994;51.606;9.988;2022-09-09T03:27:24;5.40;;;2.42;;
57113;SDS011;42994;51.606;9.988;2022-09-09T03:29:51;2.88;;;1.83;;
57113;SDS011;42994;51.606;9.988;2022-09-09T03:32:22;4.75;;;1.67;;
57113;SDS011;42994;51.606;9.988;2022-09-09T03:34:53;1.63;;;1.40;;
57113;SDS011;42994;51.606;9.988;2022-09-09T03:37:20;6.03;;;1.85;;
57113;SDS011;42994;51.606;9.988;2022-09-09T03:39:49;4.40;;;1.33;;
57113;SDS011;42994;51.606;9.988;2022-09-09T03:42:17;5.50;;;1.52;;
57113;SDS011;42994;51.606;9.988;2022-09-09T03:44:47;10.73;;;2.13;;
57113;SDS011;42994;51.606;9.988;2022-09-09T03:47:16;3.67;;;1.88;;
57113;SDS011;42994;51.606;9.988;2022-09-09T03:49:44;6.43;;;1.80;;
57113;SDS011;42994;51.606;9.988;2022-09-09T03:52:13;5.00;;;1.70;;
57113;SDS011;42994;51.606;9.988;2022-09-09T03:54:40;2.92;;;1.70;;
57113;SDS011;42994;51.606;9.988;2022-09-09T03:57:07;4.65;;;1.98;;
57113;SDS011;42994;51.606;9.988;2022-09-09T03:59:35;4.50;;;1.55;;
57113;SDS011;42994;51.606;9.988;2022-09-09T04:02:02;6.05;;;1.85;;
57113;SDS011;42994;51.606;9.988;2022-09-09T04:04:29;6.10;;;2.08;;
57113;SDS011;42994;51.606;9.988;2022-09-09T04:06:57;4.35;;;1.70;;
57113;SDS011;42994;51.606;9.988;2022-09-09T04:09:25;6.20;;;1.90;;
57113;SDS011;42994;51.606;9.988;2022-09-09T04:11:51;6.22;;;1.50;;
57113;SDS011;42994;51.606;9.988;2022-09-09T04:14:19;5.03;;;1.55;;
57113;SDS011;42994;51.606;9.988;2022-09-09T04:16:46;6.35;;;1.88;;
57113;SDS011;42994;51.606;9.988;2022-09-09T04:19:18;3.35;;;1.80;;
57113;SDS011;42994;51.606;9.988;2022-09-09T04:21:45;4.95;;;1.75;;
57113;SDS011;42994;51.606;9.988;2022-09-09T04:24:15;6.18;;;2.05;;
57113;SDS011;42994;51.606;9.988;2022-09-09T04:26:43;4.30;;;2.05;;
57113;SDS011;42994;51.606;9.988;2022-09-09T04:29:11;4.47;;;1.60;;
57113;SDS011;42994;51.606;9.988;2022-09-09T04:31:39;6.53;;;1.70;;
57113;SDS011;42994;51.606;9.988;2022-09-09T04:34:07;10.85;;;2.58;;
57113;SDS011;42994;51.606;9.988;2022-09-09T04:36:34;3.70;;;1.70;;
57113;SDS011;42994;51.606;9.988;2022-09-09T04:39:04;6.03;;;1.70;;
57113;SDS011;42994;51.606;9.988;2022-09-09T04:41:31;3.72;;;1.85;;
57113;SDS011;42994;51.606;9.988;2022-09-09T04:43:59;6.30;;;3.67;;
57113;SDS011;42994;51.606;9.988;2022-09-09T04:46:26;5.95;;;1.45;;
57113;SDS011;42994;51.606;9.988;2022-09-09T04:48:53;8.13;;;2.20;;
57113;SDS011;42994;51.606;9.988;2022-09-09T04:51:22;4.40;;;2.55;;
57113;SDS011;42994;51.606;9.988;2022-09-09T04:53:50;6.68;;;2.63;;
57113;SDS011;42994;51.606;9.988;2022-09-09T04:56:19;8.18;;;1.83;;
57113;SDS011;42994;51.606;9.988;2022-09-09T04:58:50;4.10;;;1.90;;
57113;SDS011;42994;51.606;9.988;2022-09-09T05:01:22;7.18;;;1.85;;
57113;SDS011;42994;51.606;9.988;2022-09-09T05:03:51;6.93;;;1.75;;
57113;SDS011;42994;51.606;9.988;2022-09-09T05:06:21;6.38;;;1.90;;
57113;SDS011;42994;51.606;9.988;2022-09-09T05:08:52;3.58;;;1.80;;
57113;SDS011;42994;51.606;9.988;2022-09-09T05:11:24;7.55;;;2.15;;
57113;SDS011;42994;51.606;9.988;2022-09-09T05:13:54;4.75;;;1.80;;
57113;SDS011;42994;51.606;9.988;2022-09-09T05:16:22;7.97;;;2.00;;
57113;SDS011;42994;51.606;9.988;2022-09-09T05:18:50;4.03;;;2.25;;
57113;SDS011;42994;51.606;9.988;2022-09-09T05:21:18;6.40;;;2.08;;
57113;SDS011;42994;51.606;9.988;2022-09-09T05:23:46;4.20;;;2.42;;
57113;SDS011;42994;51.606;9.988;2022-09-09T05:26:14;5.68;;;2.22;;
57113;SDS011;42994;51.606;9.988;2022-09-09T05:28:42;8.02;;;2.38;;
57113;SDS011;42994;51.606;9.988;2022-09-09T05:31:09;2.95;;;2.13;;
57113;SDS011;42994;51.606;9.988;2022-09-09T05:33:40;6.82;;;2.30;;
57113;SDS011;42994;51.606;9.988;2022-09-09T05:36:09;5.88;;;2.10;;
57113;SDS011;42994;51.606;9.988;2022-09-09T05:38:38;4.97;;;2.10;;
57113;SDS011;42994;51.606;9.988;2022-09-09T05:41:06;3.83;;;2.35;;
57113;SDS011;42994;51.606;9.988;2022-09-09T05:43:34;6.43;;;2.30;;
57113;SDS011;42994;51.606;9.988;2022-09-09T05:46:03;8.60;;;2.33;;
57113;SDS011;42994;51.606;9.988;2022-09-09T05:48:32;4.40;;;2.25;;
57113;SDS011;42994;51.606;9.988;2022-09-09T05:51:02;5.18;;;2.50;;
57113;SDS011;42994;51.606;9.988;2022-09-09T05:53:30;5.97;;;2.60;;
57113;SDS011;42994;51.606;9.988;2022-09-09T05:56:00;4.80;;;2.65;;
57113;SDS011;42994;51.606;9.988;2022-09-09T05:58:29;6.05;;;2.78;;
57113;SDS011;42994;51.606;9.988;2022-09-09T06:01:03;5.78;;;2.88;;
57113;SDS011;42994;51.606;9.988;2022-09-09T06:03:32;10.05;;;3.13;;
57113;SDS011;42994;51.606;9.988;2022-09-09T06:05:59;6.70;;;2.53;;
57113;SDS011;42994;51.606;9.988;2022-09-09T06:08:28;7.47;;;2.50;;
57113;SDS011;42994;51.606;9.988;2022-09-09T06:11:00;4.95;;;2.67;;
57113;SDS011;42994;51.606;9.988;2022-09-09T06:13:29;6.32;;;2.72;;
57113;SDS011;42994;51.606;9.988;2022-09-09T06:15:57;4.80;;;2.40;;
57113;SDS011;42994;51.606;9.988;2022-09-09T06:18:24;5.63;;;2.22;;
57113;SDS011;42994;51.606;9.988;2022-09-09T06:20:55;7.15;;;2.13;;
57113;SDS011;42994;51.606;9.988;2022-09-09T06:23:23;5.07;;;2.42;;
57113;SDS011;42994;51.606;9.988;2022-09-09T06:25:52;3.22;;;1.90;;
57113;SDS011;42994;51.606;9.988;2022-09-09T06:28:26;6.32;;;2.28;;
57113;SDS011;42994;51.606;9.988;2022-09-09T06:30:56;4.55;;;2.03;;
57113;SDS011;42994;51.606;9.988;2022-09-09T06:33:24;4.60;;;1.70;;
57113;SDS011;42994;51.606;9.988;2022-09-09T06:35:51;7.07;;;2.95;;
57113;SDS011;42994;51.606;9.988;2022-09-09T06:38:19;3.85;;;1.60;;
57113;SDS011;42994;51.606;9.988;2022-09-09T06:40:51;4.40;;;2.15;;
57113;SDS011;42994;51.606;9.988;2022-09-09T06:43:19;7.47;;;1.52;;
57113;SDS011;42994;51.606;9.988;2022-09-09T06:45:53;5.47;;;1.40;;
57113;SDS011;42994;51.606;9.988;2022-09-09T06:48:20;4.18;;;1.40;;
57113;SDS011;42994;51.606;9.988;2022-09-09T06:50:48;5.53;;;1.60;;
57113;SDS011;42994;51.606;9.988;2022-09-09T06:53:17;5.35;;;1.70;;
57113;SDS011;42994;51.606;9.988;2022-09-09T06:55:45;5.43;;;1.55;;
57113;SDS011;42994;51.606;9.988;2022-09-09T06:58:13;2.63;;;1.40;;
57113;SDS011;42994;51.606;9.988;2022-09-09T07:00:40;3.28;;;1.35;;
57113;SDS011;42994;51.606;9.988;2022-09-09T07:03:07;4.95;;;1.20;;
57113;SDS011;42994;51.606;9.988;2022-09-09T07:05:35;16.27;;;1.95;;
57113;SDS011;42994;51.606;9.988;2022-09-09T07:08:02;6.93;;;1.63;;
57113;SDS011;42994;51.606;9.988;2022-09-09T07:10:29;3.38;;;1.58;;
57113;SDS011;42994;51.606;9.988;2022-09-09T07:12:55;4.95;;;1.35;;
57113;SDS011;42994;51.606;9.988;2022-09-09T07:15:25;2.42;;;1.20;;
57113;SDS011;42994;51.606;9.988;2022-09-09T07:17:52;5.07;;;1.95;;
57113;SDS011;42994;51.606;9.988;2022-09-09T07:20:20;5.70;;;1.10;;
57113;SDS011;42994;51.606;9.988;2022-09-09T07:22:47;6.93;;;1.42;;
57113;SDS011;42994;51.606;9.988;2022-09-09T07:25:13;4.65;;;1.20;;
57113;SDS011;42994;51.606;9.988;2022-09-09T07:27:43;3.58;;;1.33;;
57113;SDS011;42994;51.606;9.988;2022-09-09T07:30:10;4.75;;;1.50;;
57113;SDS011;42994;51.606;9.988;2022-09-09T07:32:38;4.22;;;1.67;;
57113;SDS011;42994;51.606;9.988;2022-09-09T07:35:05;5.82;;;1.58;;
57113;SDS011;42994;51.606;9.988;2022-09-09T07:37:35;5.82;;;1.30;;
57113;SDS011;42994;51.606;9.988;2022-09-09T07:40:02;3.83;;;1.30;;
57113;SDS011;42994;51.606;9.988;2022-09-09T07:42:30;4.55;;;1.30;;
57113;SDS011;42994;51.606;9.988;2022-09-09T07:44:57;2.58;;;1.20;;
57113;SDS011;42994;51.606;9.988;2022-09-09T07:47:25;4.32;;;1.08;;
57113;SDS011;42994;51.606;9.988;2022-09-09T07:49:54;5.07;;;1.10;;
57113;SDS011;42994;51.606;9.988;2022-09-09T07:52:25;2.97;;;1.02;;
57113;SDS011;42994;51.606;9.988;2022-09-09T07:54:56;3.80;;;1.25;;
57113;SDS011;42994;51.606;9.988;2022-09-09T07:57:23;9.80;;;1.90;;
57113;SDS011;42994;51.606;9.988;2022-09-09T07:59:51;5.18;;;1.35;;
57113;SDS011;42994;51.606;9.988;2022-09-09T08:02:18;4.03;;;1.33;;
57113;SDS011;42994;51.606;9.988;2022-09-09T08:04:45;4.15;;;1.25;;
57113;SDS011;42994;51.606;9.988;2022-09-09T08:07:14;9.52;;;1.50;;
57113;SDS011;42994;51.606;9.988;2022-09-09T08:09:47;7.25;;;1.50;;
57113;SDS011;42994;51.606;9.988;2022-09-09T08:12:19;8.05;;;1.50;;
57113;SDS011;42994;51.606;9.988;2022-09-09T08:14:46;3.35;;;1.10;;
57113;SDS011;42994;51.606;9.988;2022-09-09T08:17:13;3.75;;;1.00;;
57113;SDS011;42994;51.606;9.988;2022-09-09T08:19:41;3.72;;;1.10;;
57113;SDS011;42994;51.606;9.988;2022-09-09T08:22:15;4.88;;;1.27;;
57113;SDS011;42994;51.606;9.988;2022-09-09T08:24:42;4.80;;;1.30;;
57113;SDS011;42994;51.606;9.988;2022-09-09T08:27:08;6.68;;;1.10;;
57113;SDS011;42994;51.606;9.988;2022-09-09T08:29:36;5.40;;;1.60;;
57113;SDS011;42994;51.606;9.988;2022-09-09T08:32:04;9.48;;;1.65;;
57113;SDS011;42994;51.606;9.988;2022-09-09T08:34:31;7.57;;;1.55;;
57113;SDS011;42994;51.606;9.988;2022-09-09T08:37:02;4.10;;;1.05;;
57113;SDS011;42994;51.606;9.988;2022-09-09T08:39:38;4.50;;;1.25;;
57113;SDS011;42994;51.606;9.988;2022-09-09T08:42:17;5.97;;;1.40;;
57113;SDS011;42994;51.606;9.988;2022-09-09T08:50:54;3.53;;;1.30;;
57113;SDS011;42994;51.606;9.988;2022-09-09T08:53:27;4.45;;;1.20;;
57113;SDS011;42994;51.606;9.988;2022-09-09T08:56:02;3.22;;;1.33;;
57113;SDS011;42994;51.606;9.988;2022-09-09T08:58:55;2.80;;;1.05;;
57113;SDS011;42994;51.606;9.988;2022-09-09T09:01:35;4.38;;;1.08;;
57113;SDS011;42994;51.606;9.988;2022-09-09T09:04:26;2.97;;;1.15;;
57113;SDS011;42994;51.606;9.988;2022-09-09T09:07:06;8.83;;;1.73;;
57113;SDS011;42994;51.606;9.988;2022-09-09T09:09:45;3.25;;;1.30;;
57113;SDS011;42994;51.606;9.988;2022-09-09T09:14:54;5.03;;;2.85;;
57113;SDS011;42994;51.606;9.988;2022-09-09T09:17:25;4.63;;;1.20;;
57113;SDS011;42994;51.606;9.988;2022-09-09T09:19:58;3.53;;;1.20;;
57113;SDS011;42994;51.606;9.988;2022-09-09T09:22:26;5.68;;;1.45;;
57113;SDS011;42994;51.606;9.988;2022-09-09T09:25:02;11.60;;;0.82;;
57113;SDS011;42994;51.606;9.988;2022-09-09T09:27:43;8.82;;;1.50;;
57113;SDS011;42994;51.606;9.988;2022-09-09T09:30:21;2.58;;;1.00;;
57113;SDS011;42994;51.606;9.988;2022-09-09T09:32:53;17.08;;;1.65;;
57113;SDS011;42994;51.606;9.988;2022-09-09T09:35:22;5.15;;;1.30;;
57113;SDS011;42994;51.606;9.988;2022-09-09T09:37:49;4.25;;;1.33;;
57113;SDS011;42994;51.606;9.988;2022-09-09T09:40:17;2.90;;;1.17;;
57113;SDS011;42994;51.606;9.988;2022-09-09T09:42:49;4.88;;;0.93;;
57113;SDS011;42994;51.606;9.988;2022-09-09T09:47:58;4.97;;;1.40;;
57113;SDS011;42994;51.606;9.988;2022-09-09T09:50:28;10.13;;;1.58;;
57113;SDS011;42994;51.606;9.988;2022-09-09T09:52:55;6.40;;;1.00;;
57113;SDS011;42994;51.606;9.988;2022-09-09T09:55:24;5.10;;;1.45;;
57113;SDS011;42994;51.606;9.988;2022-09-09T09:57:53;2.30;;;1.10;;
57113;SDS011;42994;51.606;9.988;2022-09-09T10:00:26;3.85;;;1.05;;
57113;SDS011;42994;51.606;9.988;2022-09-09T10:03:01;5.43;;;1.20;;
57113;SDS011;42994;51.606;9.988;2022-09-09T10:05:38;9.13;;;1.50;;
57113;SDS011;42994;51.606;9.988;2022-09-09T10:08:12;3.75;;;1.35;;
57113;SDS011;42994;51.606;9.988;2022-09-09T10:13:39;5.57;;;1.42;;
57113;SDS011;42994;51.606;9.988;2022-09-09T10:16:16;7.47;;;1.13;;
57113;SDS011;42994;51.606;9.988;2022-09-09T10:19:02;7.32;;;1.15;;
57113;SDS011;42994;51.606;9.988;2022-09-09T10:24:44;5.15;;;1.42;;
57113;SDS011;42994;51.606;9.988;2022-09-09T10:27:25;6.22;;;1.00;;
57113;SDS011;42994;51.606;9.988;2022-09-09T10:30:03;3.97;;;1.17;;
57113;SDS011;42994;51.606;9.988;2022-09-09T10:32:37;2.72;;;0.95;;
57113;SDS011;42994;51.606;9.988;2022-09-09T10:35:11;6.13;;;0.88;;
57113;SDS011;42994;51.606;9.988;2022-09-09T10:37:43;4.45;;;1.10;;
57113;SDS011;42994;51.606;9.988;2022-09-09T10:40:31;7.60;;;1.35;;
57113;SDS011;42994;51.606;9.988;2022-09-09T10:43:02;3.17;;;1.02;;
57113;SDS011;42994;51.606;9.988;2022-09-09T10:45:41;7.57;;;1.17;;
57113;SDS011;42994;51.606;9.988;2022-09-09T10:48:27;4.88;;;1.13;;
57113;SDS011;42994;51.606;9.988;2022-09-09T10:53:52;7.03;;;1.10;;
57113;SDS011;42994;51.606;9.988;2022-09-09T10:56:28;5.28;;;1.02;;
57113;SDS011;42994;51.606;9.988;2022-09-09T10:58:58;3.30;;;1.15;;
57113;SDS011;42994;51.606;9.988;2022-09-09T11:01:30;3.72;;;0.82;;
57113;SDS011;42994;51.606;9.988;2022-09-09T11:04:03;6.03;;;1.13;;
57113;SDS011;42994;51.606;9.988;2022-09-09T11:06:37;6.40;;;1.15;;
57113;SDS011;42994;51.606;9.988;2022-09-09T11:09:08;3.53;;;0.93;;
57113;SDS011;42994;51.606;9.988;2022-09-09T11:11:44;4.57;;;1.25;;
57113;SDS011;42994;51.606;9.988;2022-09-09T11:14:19;8.60;;;0.93;;
57113;SDS011;42994;51.606;9.988;2022-09-09T11:16:56;3.17;;;1.05;;
57113;SDS011;42994;51.606;9.988;2022-09-09T11:19:26;5.22;;;1.27;;
57113;SDS011;42994;51.606;9.988;2022-09-09T11:21:59;4.75;;;0.95;;
57113;SDS011;42994;51.606;9.988;2022-09-09T11:24:31;9.32;;;1.00;;
57113;SDS011;42994;51.606;9.988;2022-09-09T11:27:03;3.58;;;0.93;;
57113;SDS011;42994;51.606;9.988;2022-09-09T11:35:50;2.15;;;0.63;;
57113;SDS011;42994;51.606;9.988;2022-09-09T11:38:45;2.80;;;1.30;;
57113;SDS011;42994;51.606;9.988;2022-09-09T11:41:13;1.67;;;0.82;;
57113;SDS011;42994;51.606;9.988;2022-09-09T11:43:42;3.17;;;1.17;;
57113;SDS011;42994;51.606;9.988;2022-09-09T11:46:10;6.75;;;1.25;;
57113;SDS011;42994;51.606;9.988;2022-09-09T11:48:41;2.03;;;0.80;;
57113;SDS011;42994;51.606;9.988;2022-09-09T11:51:11;5.20;;;1.10;;
57113;SDS011;42994;51.606;9.988;2022-09-09T11:53:49;4.80;;;0.95;;
57113;SDS011;42994;51.606;9.988;2022-09-09T11:56:24;4.55;;;0.98;;
57113;SDS011;42994;51.606;9.988;2022-09-09T11:58:54;2.45;;;0.52;;
57113;SDS011;42994;51.606;9.988;2022-09-09T12:06:58;4.95;;;0.95;;
57113;SDS011;42994;51.606;9.988;2022-09-09T12:09:32;3.43;;;1.30;;
57113;SDS011;42994;51.606;9.988;2022-09-09T12:12:23;2.88;;;0.90;;
57113;SDS011;42994;51.606;9.988;2022-09-09T12:14:56;6.25;;;1.40;;
57113;SDS011;42994;51.606;9.988;2022-09-09T12:17:26;5.50;;;1.15;;
57113;SDS011;42994;51.606;9.988;2022-09-09T12:20:02;2.55;;;1.60;;
57113;SDS011;42994;51.606;9.988;2022-09-09T12:25:08;3.42;;;0.95;;
57113;SDS011;42994;51.606;9.988;2022-09-09T12:27:48;2.95;;;0.70;;
57113;SDS011;42994;51.606;9.988;2022-09-09T12:30:23;3.53;;;0.80;;
57113;SDS011;42994;51.606;9.988;2022-09-09T12:33:01;2.22;;;0.90;;
57113;SDS011;42994;51.606;9.988;2022-09-09T12:35:30;4.13;;;0.77;;
57113;SDS011;42994;51.606;9.988;2022-09-09T12:37:57;3.50;;;0.63;;
57113;SDS011;42994;51.606;9.988;2022-09-09T12:40:27;3.65;;;1.20;;
57113;SDS011;42994;51.606;9.988;2022-09-09T12:42:56;5.28;;;0.88;;
57113;SDS011;42994;51.606;9.988;2022-09-09T12:45:24;3.38;;;0.80;;
57113;SDS011;42994;51.606;9.988;2022-09-09T12:47:53;3.95;;;0.47;;
57113;SDS011;42994;51.606;9.988;2022-09-09T12:50:23;2.63;;;0.60;;
57113;SDS011;42994;51.606;9.988;2022-09-09T12:52:53;3.58;;;0.73;;
57113;SDS011;42994;51.606;9.988;2022-09-09T12:55:24;5.00;;;0.90;;
57113;SDS011;42994;51.606;9.988;2022-09-09T12:57:55;5.32;;;0.75;;
57113;SDS011;42994;51.606;9.988;2022-09-09T13:00:24;2.97;;;0.82;;
57113;SDS011;42994;51.606;9.988;2022-09-09T13:02:52;4.13;;;0.63;;
57113;SDS011;42994;51.606;9.988;2022-09-09T13:05:21;3.75;;;1.00;;
57113;SDS011;42994;51.606;9.988;2022-09-09T13:07:49;2.20;;;0.70;;
57113;SDS011;42994;51.606;9.988;2022-09-09T13:10:21;3.47;;;0.98;;
57113;SDS011;42994;51.606;9.988;2022-09-09T13:12:52;1.98;;;0.63;;
57113;SDS011;42994;51.606;9.988;2022-09-09T13:15:20;4.47;;;0.77;;
57113;SDS011;42994;51.606;9.988;2022-09-09T13:17:52;3.80;;;0.90;;
57113;SDS011;42994;51.606;9.988;2022-09-09T13:20:20;3.22;;;0.73;;
57113;SDS011;42994;51.606;9.988;2022-09-09T13:22:48;1.40;;;0.60;;
57113;SDS011;42994;51.606;9.988;2022-09-09T13:25:19;4.78;;;0.73;;
57113;SDS011;42994;51.606;9.988;2022-09-09T13:27:51;3.53;;;1.10;;
57113;SDS011;42994;51.606;9.988;2022-09-09T13:30:21;2.28;;;0.73;;
57113;SDS011;42994;51.606;9.988;2022-09-09T13:32:59;1.33;;;0.60;;
57113;SDS011;42994;51.606;9.988;2022-09-09T13:35:27;2.95;;;0.52;;
57113;SDS011;42994;51.606;9.988;2022-09-09T13:37:54;2.50;;;0.80;;
57113;SDS011;42994;51.606;9.988;2022-09-09T13:40:22;5.65;;;0.88;;
57113;SDS011;42994;51.606;9.988;2022-09-09T13:42:51;3.15;;;0.88;;
57113;SDS011;42994;51.606;9.988;2022-09-09T13:45:22;2.63;;;0.98;;
57113;SDS011;42994;51.606;9.988;2022-09-09T13:47:51;2.65;;;0.90;;
57113;SDS011;42994;51.606;9.988;2022-09-09T13:50:20;3.83;;;1.10;;
57113;SDS011;42994;51.606;9.988;2022-09-09T13:52:48;2.92;;;0.88;;
57113;SDS011;42994;51.606;9.988;2022-09-09T13:55:16;2.25;;;0.80;;
57113;SDS011;42994;51.606;9.988;2022-09-09T13:57:51;1.00;;;0.57;;
57113;SDS011;42994;51.606;9.988;2022-09-09T14:00:18;5.28;;;1.13;;
57113;SDS011;42994;51.606;9.988;2022-09-09T14:02:45;2.85;;;0.82;;
57113;SDS011;42994;51.606;9.988;2022-09-09T14:05:12;1.60;;;1.00;;
57113;SDS011;42994;51.606;9.988;2022-09-09T14:07:40;3.83;;;1.17;;
57113;SDS011;42994;51.606;9.988;2022-09-09T14:10:07;2.70;;;0.77;;
57113;SDS011;42994;51.606;9.988;2022-09-09T14:12:34;3.28;;;0.68;;
57113;SDS011;42994;51.606;9.988;2022-09-09T14:15:04;3.63;;;0.77;;
57113;SDS011;42994;51.606;9.988;2022-09-09T14:17:32;2.17;;;0.82;;
57113;SDS011;42994;51.606;9.988;2022-09-09T14:20:01;4.80;;;1.00;;
57113;SDS011;42994;51.606;9.988;2022-09-09T14:22:30;2.28;;;0.82;;
57113;SDS011;42994;51.606;9.988;2022-09-09T14:24:57;3.92;;;0.85;;
57113;SDS011;42994;51.606;9.988;2022-09-09T14:27:23;2.50;;;0.75;;
57113;SDS011;42994;51.606;9.988;2022-09-09T14:29:51;6.07;;;0.90;;
57113;SDS011;42994;51.606;9.988;2022-09-09T14:32:19;5.07;;;0.70;;
57113;SDS011;42994;51.606;9.988;2022-09-09T14:34:47;1.40;;;0.70;;
57113;SDS011;42994;51.606;9.988;2022-09-09T14:37:14;1.23;;;0.70;;
57113;SDS011;42994;51.606;9.988;2022-09-09T14:39:41;5.97;;;1.27;;
57113;SDS011;42994;51.606;9.988;2022-09-09T14:42:09;2.35;;;0.90;;
57113;SDS011;42994;51.606;9.988;2022-09-09T14:44:36;5.40;;;0.80;;
57113;SDS011;42994;51.606;9.988;2022-09-09T14:47:03;3.63;;;0.60;;
57113;SDS011;42994;51.606;9.988;2022-09-09T14:49:31;2.63;;;0.80;;
57113;SDS011;42994;51.606;9.988;2022-09-09T14:51:58;3.00;;;0.80;;
57113;SDS011;42994;51.606;9.988;2022-09-09T14:54:24;1.23;;;0.70;;
57113;SDS011;42994;51.606;9.988;2022-09-09T14:56:51;3.17;;;1.13;;
57113;SDS011;42994;51.606;9.988;2022-09-09T14:59:18;1.50;;;0.60;;
57113;SDS011;42994;51.606;9.988;2022-09-09T15:01:45;2.55;;;0.70;;
57113;SDS011;42994;51.606;9.988;2022-09-09T15:04:12;2.10;;;0.57;;
57113;SDS011;42994;51.606;9.988;2022-09-09T15:06:41;3.28;;;0.80;;
57113;SDS011;42994;51.606;9.988;2022-09-09T15:09:09;2.53;;;0.50;;
57113;SDS011;42994;51.606;9.988;2022-09-09T15:11:37;4.63;;;0.85;;
57113;SDS011;42994;51.606;9.988;2022-09-09T15:14:04;3.72;;;0.52;;
57113;SDS011;42994;51.606;9.988;2022-09-09T15:16:32;2.35;;;0.73;;
57113;SDS011;42994;51.606;9.988;2022-09-09T15:18:59;4.80;;;0.82;;
57113;SDS011;42994;51.606;9.988;2022-09-09T15:21:27;4.20;;;0.75;;
57113;SDS011;42994;51.606;9.988;2022-09-09T15:23:56;4.65;;;0.80;;
57113;SDS011;42994;51.606;9.988;2022-09-09T15:26:24;2.42;;;0.60;;
57113;SDS011;42994;51.606;9.988;2022-09-09T15:28:51;2.58;;;0.70;;
57113;SDS011;42994;51.606;9.988;2022-09-09T15:31:18;0.68;;;0.52;;
57113;SDS011;42994;51.606;9.988;2022-09-09T15:33:47;2.30;;;0.93;;
57113;SDS011;42994;51.606;9.988;2022-09-09T15:36:14;4.55;;;0.70;;
57113;SDS011;42994;51.606;9.988;2022-09-09T15:38:42;3.83;;;1.00;;
57113;SDS011;42994;51.606;9.988;2022-09-09T15:41:10;2.42;;;0.52;;
57113;SDS011;42994;51.606;9.988;2022-09-09T15:43:37;2.47;;;0.70;;
57113;SDS011;42994;51.606;9.988;2022-09-09T15:46:08;0.77;;;0.57;;
57113;SDS011;42994;51.606;9.988;2022-09-09T15:48:51;3.15;;;0.80;;